Sabahat Telli — TCSQ6 — position and weather

sailwx.info

Track history (hours):
 
Tides and Currents Weather Stations Pressure Air Temp Water Temp Dewpoint Dewpoint Depression Visibility Wind Speed Wind Dir Waves Ship Positions

Sabahat Telli

Last reported at 2015-May-18 15:33 UTC. Time now 2015-May-22 11:30 UTC.
Position N 41°59' E 028°59'.

Length 99 m; draft 6 m.

Type: Tanker. MMSI: 271000961.

Date/timePositionNaut miles runAvg speedWind from/ knotsBaromVisibWave heightAir tempDewpointWater temp
2015-May-18 15:33N 41°59' E 028°59'1212.5
2015-May-18 14:33N 42°12' E 028°58'  
2015-May-16 07:17N 41°18' E 029°12'  
2015-May-12 17:30N 41°17' E 029°17'1212.4
2015-May-12 16:33N 41°20' E 029°32'26211.4
2015-May-11 17:33N 43°52' E 034°23'1312.6
2015-May-11 16:33N 43°59' E 034°38'1312.5
2015-May-11 15:33N 44°05' E 034°52'1312.6
2015-May-11 14:33N 44°12' E 035°07'1312.6
2015-May-11 13:33N 44°19' E 035°22'1312.7
2015-May-11 12:33N 44°26' E 035°37'1312.7
2015-May-11 11:33N 44°33' E 035°52'1512.5
2015-May-11 10:19N 44°41' E 036°10'912.2
2015-May-11 09:33N 44°46' E 036°21'1210.9
2015-May-11 08:30N 44°57' E 036°28'  
Track history (hours):
 
Tides and Currents Weather Stations Pressure Air Temp Water Temp Dewpoint Dewpoint Depression Visibility Wind Speed Wind Dir Waves Ship Positions

Sabahat Telli

Last reported at 2015-May-18 15:33 UTC. Time now 2015-May-22 11:30 UTC.
Position N 41°59' E 028°59'.

Length 99 m; draft 6 m.

Type: Tanker. MMSI: 271000961.

Date/timePositionNaut miles runAvg speedWind from/ knotsBaromVisibWave heightAir tempDewpointWater temp
2015-May-18 15:33N 41°59' E 028°59'1212.5
2015-May-18 14:33N 42°12' E 028°58'  
2015-May-16 07:17N 41°18' E 029°12'  
2015-May-12 17:30N 41°17' E 029°17'1212.4
2015-May-12 16:33N 41°20' E 029°32'26211.4
2015-May-11 17:33N 43°52' E 034°23'1312.6
2015-May-11 16:33N 43°59' E 034°38'1312.5
2015-May-11 15:33N 44°05' E 034°52'1312.6
2015-May-11 14:33N 44°12' E 035°07'1312.6
2015-May-11 13:33N 44°19' E 035°22'1312.7
2015-May-11 12:33N 44°26' E 035°37'1312.7
2015-May-11 11:33N 44°33' E 035°52'1512.5
2015-May-11 10:19N 44°41' E 036°10'912.2
2015-May-11 09:33N 44°46' E 036°21'1210.9
2015-May-11 08:30N 44°57' E 036°28'  

Dump ship's entire track history